CPX364 Details

Departure: Fort Worth Alliance Airport (KAFW)
Arrival: March Air Reserve Base (KRIV) at N/A
Route: SWABR5 DOSXX INK V94 TFD J169 TRM ARKOE1
Notes:


Current Weather Information
KAFW 251053Z 00000KT 10SM CLR 25/22 A2987 RMK AO2 SLP099 T02500217
KRIV 251058Z AUTO 00000KT 10SM CLR 18/18 A3000 RMK AO2 SLP144 T01830181